Betagas — V2KA8 — position and weather

sailwx.info

Track history (hours):
 
Tides and Currents Weather Stations Pressure Air Temp Water Temp Dewpoint Dewpoint Depression Visibility Wind Speed Wind Dir Waves Ship Positions

Betagas

Last reported at 2015-Aug-30 05:19 UTC. Time now 2015-Aug-31 08:51 UTC.
Position N 54°28' E 009°02'.

Length 114.6 m; beam 15.7 m; draft 7.4 m.

Type: Ship. MMSI: 304050636.

Date/timePositionNaut miles runAvg speedWind from/ knotsBaromVisibWave heightAir tempDewpointWater temp
2015-Aug-30 05:19N 54°28' E 009°02'0 0.0
2015-Aug-28 05:19N 54°28' E 009°02'0 0.0
2015-Aug-27 18:33N 54°28' E 009°02'0 0.0
2015-Aug-27 17:29N 54°28' E 009°02'0 0.0
2015-Aug-27 08:05N 54°28' E 009°02'0 0.0
2015-Aug-27 07:04N 54°28' E 009°02'0 0.0
2015-Aug-27 06:29N 54°28' E 009°02'0 0.0
2015-Aug-27 05:33N 54°28' E 009°02'0 0.0
2015-Aug-27 04:31N 54°28' E 009°02'0 0.0
2015-Aug-26 22:17N 54°28' E 009°02'0 0.0
2015-Aug-26 20:15N 54°28' E 009°02'0 0.0
2015-Aug-26 19:33N 54°28' E 009°02'  
2015-Aug-23 07:22N 54°28' E 009°02'0 0.0
2015-Aug-23 05:16N 54°28' E 009°02'0 0.0
2015-Aug-22 08:13N 54°28' E 009°02'0 0.0
2015-Aug-22 07:22N 54°28' E 009°02'0 0.0
2015-Aug-22 05:20N 54°28' E 009°02'0 0.5
2015-Aug-22 04:33N 54°28' E 009°01'3 3.3
2015-Aug-22 03:33N 54°28' E 008°56'9 9.4
2015-Aug-22 02:33N 54°26' E 008°40'1010.3
2015-Aug-22 01:33N 54°19' E 008°27'1110.7
2015-Aug-22 00:33N 54°09' E 008°20'9 8.6
2015-Aug-21 23:34N 54°03' E 008°10'1111.4
2015-Aug-21 22:33N 54°05' E 007°51'1312.7
2015-Aug-21 21:33N 54°11' E 007°31'1312.5
2015-Aug-21 20:33N 54°22' E 007°23'1212.4
2015-Aug-21 19:33N 54°34' E 007°16'1110.7
2015-Aug-21 18:32N 54°44' E 007°09'1 1.3
2015-Aug-21 17:33N 54°43' E 007°10'1 1.3
2015-Aug-21 16:33N 54°42' E 007°12'1 1.1
2015-Aug-21 15:33N 54°41' E 007°12'1 1.1
2015-Aug-21 14:33N 54°40' E 007°13'1 0.9
2015-Aug-21 13:34N 54°39' E 007°12'1 1.1
2015-Aug-21 12:33N 54°38' E 007°11'1 1.3
2015-Aug-21 11:34N 54°37' E 007°10'1 1.2
2015-Aug-21 10:33N 54°36' E 007°09'1 1.0
2015-Aug-21 09:22N 54°34' E 007°09'  
Track history (hours):
 
Tides and Currents Weather Stations Pressure Air Temp Water Temp Dewpoint Dewpoint Depression Visibility Wind Speed Wind Dir Waves Ship Positions

Betagas

Last reported at 2015-Aug-30 05:19 UTC. Time now 2015-Aug-31 08:51 UTC.
Position N 54°28' E 009°02'.

Length 114.6 m; beam 15.7 m; draft 7.4 m.

Type: Ship. MMSI: 304050636.

Date/timePositionNaut miles runAvg speedWind from/ knotsBaromVisibWave heightAir tempDewpointWater temp
2015-Aug-30 05:19N 54°28' E 009°02'0 0.0
2015-Aug-28 05:19N 54°28' E 009°02'0 0.0
2015-Aug-27 18:33N 54°28' E 009°02'0 0.0
2015-Aug-27 17:29N 54°28' E 009°02'0 0.0
2015-Aug-27 08:05N 54°28' E 009°02'0 0.0
2015-Aug-27 07:04N 54°28' E 009°02'0 0.0
2015-Aug-27 06:29N 54°28' E 009°02'0 0.0
2015-Aug-27 05:33N 54°28' E 009°02'0 0.0
2015-Aug-27 04:31N 54°28' E 009°02'0 0.0
2015-Aug-26 22:17N 54°28' E 009°02'0 0.0
2015-Aug-26 20:15N 54°28' E 009°02'0 0.0
2015-Aug-26 19:33N 54°28' E 009°02'  
2015-Aug-23 07:22N 54°28' E 009°02'0 0.0
2015-Aug-23 05:16N 54°28' E 009°02'0 0.0
2015-Aug-22 08:13N 54°28' E 009°02'0 0.0
2015-Aug-22 07:22N 54°28' E 009°02'0 0.0
2015-Aug-22 05:20N 54°28' E 009°02'0 0.5
2015-Aug-22 04:33N 54°28' E 009°01'3 3.3
2015-Aug-22 03:33N 54°28' E 008°56'9 9.4
2015-Aug-22 02:33N 54°26' E 008°40'1010.3
2015-Aug-22 01:33N 54°19' E 008°27'1110.7
2015-Aug-22 00:33N 54°09' E 008°20'9 8.6
2015-Aug-21 23:34N 54°03' E 008°10'1111.4
2015-Aug-21 22:33N 54°05' E 007°51'1312.7
2015-Aug-21 21:33N 54°11' E 007°31'1312.5
2015-Aug-21 20:33N 54°22' E 007°23'1212.4
2015-Aug-21 19:33N 54°34' E 007°16'1110.7
2015-Aug-21 18:32N 54°44' E 007°09'1 1.3
2015-Aug-21 17:33N 54°43' E 007°10'1 1.3
2015-Aug-21 16:33N 54°42' E 007°12'1 1.1
2015-Aug-21 15:33N 54°41' E 007°12'1 1.1
2015-Aug-21 14:33N 54°40' E 007°13'1 0.9
2015-Aug-21 13:34N 54°39' E 007°12'1 1.1
2015-Aug-21 12:33N 54°38' E 007°11'1 1.3
2015-Aug-21 11:34N 54°37' E 007°10'1 1.2
2015-Aug-21 10:33N 54°36' E 007°09'1 1.0
2015-Aug-21 09:22N 54°34' E 007°09'  

Dump ship's entire track history